地図

経路データ

SID SEASON NUMBER BASIN SUBBASIN NAME ISO_TIME NATURE LAT LON WMO_WIND WMO_PRES WMO_AGENCY TRACK_TYPE DIST2LAND LANDFALL IFLAG USA_AGENCY USA_ATCF_ID USA_LAT USA_LON USA_RECORD USA_STATUS USA_WIND USA_PRES USA_SSHS USA_R34_NE USA_R34_SE USA_R34_SW USA_R34_NW USA_R50_NE USA_R50_SE USA_R50_SW USA_R50_NW USA_R64_NE USA_R64_SE USA_R64_SW USA_R64_NW USA_POCI USA_ROCI USA_RMW USA_EYE TOKYO_LAT TOKYO_LON TOKYO_GRADE TOKYO_WIND TOKYO_PRES TOKYO_R50_DIR TOKYO_R50_LONG TOKYO_R50_SHORT TOKYO_R30_DIR TOKYO_R30_LONG TOKYO_R30_SHORT TOKYO_LAND CMA_LAT CMA_LON CMA_CAT CMA_WIND CMA_PRES HKO_LAT HKO_LON HKO_CAT HKO_WIND HKO_PRES NEWDELHI_LAT NEWDELHI_LON NEWDELHI_GRADE NEWDELHI_WIND NEWDELHI_PRES NEWDELHI_CI NEWDELHI_DP NEWDELHI_POCI REUNION_LAT REUNION_LON REUNION_TYPE REUNION_WIND REUNION_PRES REUNION_TNUM REUNION_CI REUNION_RMW REUNION_R34_NE REUNION_R34_SE REUNION_R34_SW REUNION_R34_NW REUNION_R50_NE REUNION_R50_SE REUNION_R50_SW REUNION_R50_NW REUNION_R64_NE REUNION_R64_SE REUNION_R64_SW REUNION_R64_NW BOM_LAT BOM_LON BOM_TYPE BOM_WIND BOM_PRES BOM_TNUM BOM_CI BOM_RMW BOM_R34_NE BOM_R34_SE BOM_R34_SW BOM_R34_NW BOM_R50_NE BOM_R50_SE BOM_R50_SW BOM_R50_NW BOM_R64_NE BOM_R64_SE BOM_R64_SW BOM_R64_NW BOM_ROCI BOM_POCI BOM_EYE BOM_POS_METHOD BOM_PRES_METHOD NADI_LAT NADI_LON NADI_CAT NADI_WIND NADI_PRES WELLINGTON_LAT WELLINGTON_LON WELLINGTON_WIND WELLINGTON_PRES DS824_LAT DS824_LON DS824_STAGE DS824_WIND DS824_PRES TD9636_LAT TD9636_LON TD9636_STAGE TD9636_WIND TD9636_PRES TD9635_LAT TD9635_LON TD9635_WIND TD9635_PRES TD9635_ROCI NEUMANN_LAT NEUMANN_LON NEUMANN_CLASS NEUMANN_WIND NEUMANN_PRES MLC_LAT MLC_LON MLC_CLASS MLC_WIND MLC_PRES USA_GUST BOM_GUST BOM_GUST_PER REUNION_GUST REUNION_GUST_PER USA_SEAHGT USA_SEARAD_NE USA_SEARAD_SE USA_SEARAD_SW USA_SEARAD_NW STORM_SPEED STORM_DIR
1954266N22080 1954 69 NI BB NOT_NAMED 1954-09-22 18:00:00 TS 22.0000 80.1000 main 0 0 O________O____ jtwc_io IO081954 22.0000 80.1000 -1 22.0000 80.1000 TC 15 280
1954266N22080 1954 69 NI BB NOT_NAMED 1954-09-22 21:00:00 TS 22.1359 79.2802 main 0 0 P________P____ IO081954 22.1359 79.2802 -1 22.1359 79.2802 TC 15 281
1954266N22080 1954 69 NI BB NOT_NAMED 1954-09-23 00:00:00 TS 22.3000 78.5000 main 0 0 O________O____ jtwc_io IO081954 22.3000 78.5000 -1 22.3000 78.5000 TC 25 14 286
1954266N22080 1954 69 NI AS NOT_NAMED 1954-09-23 03:00:00 TS 22.5176 77.7977 main 0 0 P________PO___ IO081954 22.5198 77.7974 -1 22.5198 77.7974 TC 25 22.5000 77.8000 1 13 293
1954266N22080 1954 69 NI AS NOT_NAMED 1954-09-23 06:00:00 TS 22.8063 77.2160 main 0 0 O________OP___ jtwc_io IO081954 22.8000 77.2000 -1 22.8000 77.2000 TC 25 22.8313 77.2801 1 12 302
1954266N22080 1954 69 NI AS NOT_NAMED 1954-09-23 09:00:00 TS 23.1387 76.7245 main 0 0 P________PP___ IO081954 23.1272 76.7048 -1 23.1272 76.7048 TC 25 23.1693 76.7771 1 11 310
1954266N22080 1954 69 NI AS NOT_NAMED 1954-09-23 12:00:00 TS 23.5075 76.3035 main 0 0 O________OP___ jtwc_io IO081954 23.5000 76.3000 -1 23.5000 76.3000 TC 25 23.5226 76.3105 1 11 315
1954266N22080 1954 69 NI AS NOT_NAMED 1954-09-23 15:00:00 TS 23.8899 75.9132 main 0 0 P________PO___ IO081954 23.8849 75.9198 -1 23.8849 75.9198 TC 25 23.9000 75.9000 1 10 321
1954266N22080 1954 69 NI AS NOT_NAMED 1954-09-23 18:00:00 TS 24.3028 75.5868 main 0 0 O________OP___ jtwc_io IO081954 24.3000 75.6000 -1 24.3000 75.6000 TC 25 24.3084 75.5604 1 10 327
1954266N22080 1954 69 NI AS NOT_NAMED 1954-09-23 21:00:00 TS 24.7389 75.3089 main 0 0 P________PP___ IO081954 24.7349 75.3199 -1 24.7349 75.3199 TC 25 24.7468 75.2869 1 10 333
1954266N22080 1954 69 NI AS NOT_NAMED 1954-09-24 00:00:00 TS 25.2039 75.0900 main 0 0 O________OP___ jtwc_io IO081954 25.2000 75.1000 -1 25.2000 75.1000 TC 25 25.2118 75.0699 1 10 340
1954266N22080 1954 69 NI AS NOT_NAMED 1954-09-24 03:00:00 TS 25.6900 74.9182 main 0 0 P________PO___ IO081954 25.6849 74.9273 -1 25.6849 74.9273 TC 25 25.7000 74.9000 1 10 344
1954266N22080 1954 69 NI AS NOT_NAMED 1954-09-24 06:00:00 TS 26.2038 74.7788 main 0 0 O________OP___ jtwc_io IO081954 26.2000 74.8000 -1 26.2000 74.8000 TC 25 26.2113 74.7363 1 11 348
1954266N22080 1954 69 NI AS NOT_NAMED 1954-09-24 09:00:00 TS 26.7474 74.6624 main 0 0 P________PP___ IO081954 26.7500 74.6850 -1 26.7500 74.6850 TC 25 26.7423 74.6173 1 11 351
1954266N22080 1954 69 NI AS NOT_NAMED 1954-09-24 12:00:00 TS 27.2924 74.5799 main 0 0 O________OP___ jtwc_io IO081954 27.3000 74.6000 -1 27.3000 74.6000 TC 25 27.2771 74.5397 1 11 353
1954266N22080 1954 69 NI AS NOT_NAMED 1954-09-24 15:00:00 TS 27.8100 74.5233 main 0 0 P________PO___ IO081954 27.8150 74.5349 -1 27.8150 74.5349 TC 25 27.8000 74.5000 1 10 356
1954266N22080 1954 69 NI AS NOT_NAMED 1954-09-24 18:00:00 TS 28.2996 74.4976 main 0 0 O________OP___ jtwc_io IO081954 28.3000 74.5000 -1 28.3000 74.5000 TC 25 28.2991 74.4941 1 10 360
1954266N22080 1954 69 NI AS NOT_NAMED 1954-09-24 21:00:00 TS 28.7661 74.5019 main 0 0 P________PP___ IO081954 28.7575 74.4925 -1 28.7575 74.4925 TC 25 28.7776 74.5145 1 9 0
1954266N22080 1954 69 NI AS NOT_NAMED 1954-09-25 00:00:00 TS 29.2211 74.5263 main 0 0 O________OP___ jtwc_io IO081954 29.2000 74.5000 -1 29.2000 74.5000 TC 25 29.2422 74.5526 1 9 5
1954266N22080 1954 69 NI AS NOT_NAMED 1954-09-25 03:00:00 NR 29.7000 74.6000 main 0 __________O___ IO081954 -1 TC 29.7000 74.6000 1 10 9

IBTrACS Databaseについて

本データベースは、米国NOAAが公開する1842年以降の世界の熱帯低気圧のベストトラックデータアーカイブInternational Best Track Archive for Climate Stewardship (IBTrACS)を、ウェブで閲覧しやすい形式に変換したものです。

最終更新日:2021-10-25